Time;durP1;ratioP1;P1;durP2;ratioP2;P2;SDS_P1;SDS_P2;PMS_P1;PMS_P2;Temp;Humidity;BMP_temperature;BMP_pressure;BME280_temperature;BME280_humidity;BME280_pressure;Samples;Min_cycle;Max_cycle;Signal;HPM_P1;HPM_P2
2021/10/22 00:01:51;;;;;;;;;10.25;10.25;;;;;13.26;83.34;101056.75;4897067;29;10464;-70
2021/10/22 00:04:47;;;;;;;;;10.25;10.25;;;;;13.37;82.71;101052.41;4898413;29;10399;-70
2021/10/22 00:07:43;;;;;;;;;10.25;9.75;;;;;13.23;83.60;101057.44;4896987;29;10277;-70
2021/10/22 00:10:38;;;;;;;;;9.25;9.25;;;;;13.37;83.32;101059.94;4896850;29;10437;-70
2021/10/22 00:13:33;;;;;;;;;11.25;10.00;;;;;13.51;82.75;101052.94;4896909;29;10213;-70
2021/10/22 00:16:29;;;;;;;;;11.50;11.50;;;;;13.51;82.44;101058.50;4914460;29;10271;-70
2021/10/22 00:19:25;;;;;;;;;11.25;11.25;;;;;13.52;82.46;101054.56;4916095;29;10300;-70
2021/10/22 00:22:21;;;;;;;;;10.50;10.50;;;;;13.45;82.83;101054.28;4915507;29;10252;-70
2021/10/22 00:25:16;;;;;;;;;12.25;12.25;;;;;13.26;83.78;101052.00;4915096;29;10216;-70
2021/10/22 00:28:12;;;;;;;;;11.25;11.25;;;;;13.55;82.94;101045.53;4909678;29;10302;-70
2021/10/22 00:31:08;;;;;;;;;11.50;10.00;;;;;13.42;83.28;101041.09;4915749;29;10142;-70
2021/10/22 00:34:03;;;;;;;;;12.00;12.00;;;;;13.61;82.42;101038.59;4903319;29;10153;-70
2021/10/22 00:37:00;;;;;;;;;10.75;10.75;;;;;13.52;82.79;101040.66;4915418;29;10276;-70
2021/10/22 00:39:56;;;;;;;;;9.00;9.00;;;;;13.38;83.37;101040.13;4919538;29;10176;-70
2021/10/22 00:42:54;;;;;;;;;11.50;10.75;;;;;13.53;83.22;101045.06;4900299;29;10081;-70
2021/10/22 00:45:53;;;;;;;;;8.75;8.75;;;;;13.58;83.34;101036.53;4900175;29;11000;-70
2021/10/22 00:48:49;;;;;;;;;8.50;8.50;;;;;13.64;82.68;101034.31;4905115;29;10055;-70
2021/10/22 00:51:44;;;;;;;;;9.50;9.50;;;;;13.70;82.34;101040.47;4918931;29;10163;-70
2021/10/22 00:54:41;;;;;;;;;10.75;10.75;;;;;13.62;82.88;101031.06;4919057;29;10051;-70
2021/10/22 00:57:39;;;;;;;;;9.50;9.50;;;;;13.60;83.13;101033.38;4905710;29;10879;-70
2021/10/22 01:00:35;;;;;;;;;12.50;11.00;;;;;13.59;83.23;101024.25;4918695;29;10242;-70
2021/10/22 01:03:30;;;;;;;;;9.25;9.25;;;;;13.74;82.41;101021.97;4918557;29;10211;-70
2021/10/22 01:06:26;;;;;;;;;11.25;11.25;;;;;13.55;83.44;101020.50;4918317;29;10320;-70
2021/10/22 01:09:23;;;;;;;;;10.75;10.75;;;;;13.71;82.76;101019.84;4918645;29;10345;-70
2021/10/22 01:12:19;;;;;;;;;10.00;10.00;;;;;13.53;83.90;101011.72;4918682;29;10039;-70
2021/10/22 01:15:14;;;;;;;;;10.50;10.00;;;;;13.59;83.88;101009.53;4918347;29;10914;-70
2021/10/22 01:18:10;;;;;;;;;9.00;9.00;;;;;13.57;83.62;101003.50;4918422;29;10122;-70
2021/10/22 01:21:06;;;;;;;;;9.00;9.00;;;;;13.59;83.66;101009.53;4918709;29;10129;-70
2021/10/22 01:24:03;;;;;;;;;8.50;8.50;;;;;13.47;83.80;101013.09;4918237;29;10118;-70
2021/10/22 01:26:58;;;;;;;;;10.75;10.75;;;;;13.52;83.93;101012.06;4905609;29;10395;-70
2021/10/22 01:29:54;;;;;;;;;10.00;10.00;;;;;13.59;82.98;101006.75;4936439;29;10257;-70
2021/10/22 01:32:58;;;;;;;;;10.25;9.25;;;;;13.63;82.69;101005.72;4924779;29;11017;-71
2021/10/22 01:35:54;;;;;;;;;7.00;7.00;;;;;13.54;83.12;100993.88;4936825;29;10256;-70
2021/10/22 01:38:50;;;;;;;;;9.00;9.00;;;;;13.62;82.75;101011.63;4937206;29;10184;-70
2021/10/22 01:41:46;;;;;;;;;12.00;12.00;;;;;13.55;82.98;100997.47;4937346;29;10107;-70
2021/10/22 01:44:41;;;;;;;;;10.00;10.00;;;;;13.49;83.25;101009.94;4937167;29;10112;-69
2021/10/22 01:47:38;;;;;;;;;10.25;10.25;;;;;13.24;84.14;101020.97;4936822;29;10129;-70
2021/10/22 01:50:07;;;;;;;;;11.00;11.00;;;;;13.30;83.93;101013.25;4937714;29;10384;-69
2021/10/22 01:53:03;;;;;;;;;8.50;8.50;;;;;13.37;83.62;101012.72;4924105;29;10126;-70
2021/10/22 01:55:59;;;;;;;;;10.25;10.25;;;;;13.45;83.28;101009.03;4923889;29;10941;-70
2021/10/22 01:58:54;;;;;;;;;10.00;10.00;;;;;13.39;83.29;101007.63;4936411;29;10242;-70
2021/10/22 02:01:50;;;;;;;;;10.25;10.25;;;;;13.32;83.77;101000.66;4918516;29;10339;-70
2021/10/22 02:04:46;;;;;;;;;9.50;9.50;;;;;13.30;83.87;101004.94;4917650;29;10303;-70
2021/10/22 02:07:41;;;;;;;;;11.25;11.25;;;;;13.39;83.68;101011.19;4931265;29;10129;-70
2021/10/22 02:10:37;;;;;;;;;10.25;10.25;;;;;13.13;84.94;101008.66;4936463;29;10202;-68
2021/10/22 02:13:32;;;;;;;;;12.00;12.00;;;;;13.32;84.62;101003.41;4936275;29;10282;-70
2021/10/22 02:16:28;;;;;;;;;11.00;11.00;;;;;13.25;85.66;101013.47;4936443;29;10309;-70
2021/10/22 02:18:55;;;;;;;;;17.50;12.00;;;;;13.33;84.74;101004.22;4937437;29;10482;-70
2021/10/22 02:21:51;;;;;;;;;13.50;13.50;;;;;13.25;85.41;101005.13;4936509;29;10246;-70
2021/10/22 02:24:47;;;;;;;;;12.25;12.00;;;;;13.34;85.28;101008.63;4936103;29;10277;-70
2021/10/22 02:27:42;;;;;;;;;17.75;16.25;;;;;13.53;84.99;101011.72;4935671;29;10365;-70
2021/10/22 02:30:38;;;;;;;;;12.75;12.50;;;;;13.48;84.64;101000.81;4936173;29;10360;-70
2021/10/22 02:33:34;;;;;;;;;11.25;9.75;;;;;13.46;84.89;101005.91;4936376;29;10297;-70
2021/10/22 02:36:29;;;;;;;;;14.25;14.25;;;;;13.42;85.16;101009.69;4936005;29;10513;-70
2021/10/22 02:39:25;;;;;;;;;11.50;11.50;;;;;13.31;85.74;101010.13;4936021;29;10385;-70
2021/10/22 02:42:21;;;;;;;;;13.50;12.00;;;;;13.33;85.90;101007.00;4935770;29;10366;-70
2021/10/22 02:45:16;;;;;;;;;15.25;15.25;;;;;13.43;85.72;101012.16;4934537;29;10443;-70
2021/10/22 02:48:12;;;;;;;;;15.00;15.00;;;;;13.51;84.78;101004.88;4935825;29;11365;-70
2021/10/22 02:50:49;;;;;;;;;12.50;12.50;;;;;13.56;84.75;101002.69;4936962;29;10565;-70
2021/10/22 02:53:45;;;;;;;;;14.00;14.00;;;;;13.58;85.14;101014.28;4935608;29;10293;-71
2021/10/22 02:56:40;;;;;;;;;14.00;13.75;;;;;13.53;85.31;101005.34;4934684;29;10513;-69
2021/10/22 02:59:36;;;;;;;;;16.50;16.50;;;;;13.53;85.64;100994.22;4935901;29;10419;-70
2021/10/22 03:02:31;;;;;;;;;14.75;14.75;;;;;13.59;85.60;101009.53;4935248;29;10434;-69
2021/10/22 03:05:29;;;;;;;;;17.00;16.75;;;;;13.57;86.09;101004.34;4935386;29;10442;-69
2021/10/22 03:08:25;;;;;;;;;13.25;12.25;;;;;13.55;86.63;100992.72;4936890;29;11353;-70
2021/10/22 03:11:21;;;;;;;;;14.50;14.50;;;;;13.55;87.23;100992.72;4935518;29;10400;-70
2021/10/22 03:14:16;;;;;;;;;18.50;18.50;;;;;13.66;86.67;100990.34;4930193;29;10613;-70
2021/10/22 03:17:12;;;;;;;;;19.75;19.75;;;;;13.57;87.27;100979.31;4935191;29;10650;-69
2021/10/22 03:20:08;;;;;;;;;20.50;20.50;;;;;13.57;87.90;100978.47;4932787;29;10610;-69
2021/10/22 03:23:04;;;;;;;;;23.00;19.50;;;;;13.52;88.77;100989.84;4935531;29;10546;-69
2021/10/22 03:26:00;;;;;;;;;26.25;25.00;;;;;13.51;88.59;100991.81;4923700;29;10484;-69
2021/10/22 03:28:55;;;;;;;;;25.25;24.75;;;;;13.54;88.61;100987.53;4935154;29;10623;-69
2021/10/22 03:31:51;;;;;;;;;23.50;23.50;;;;;13.73;88.02;100984.22;4932025;29;10544;-70
2021/10/22 03:34:18;;;;;;;;;24.75;24.75;;;;;13.71;88.27;100990.09;4917124;29;10471;-70
2021/10/22 03:37:14;;;;;;;;;28.25;28.25;;;;;13.66;88.22;100992.31;4929405;29;10535;-69
2021/10/22 03:40:10;;;;;;;;;25.25;24.75;;;;;13.79;87.98;100977.25;4922107;29;10547;-69
2021/10/22 03:43:06;;;;;;;;;28.25;27.50;;;;;13.69;89.00;100983.25;4922405;29;10613;-70
2021/10/22 03:46:05;;;;;;;;;25.00;25.00;;;;;13.85;88.12;100984.22;4935211;29;10529;-70
2021/10/22 03:49:00;;;;;;;;;23.50;23.50;;;;;13.73;88.80;100978.66;4934712;29;10599;-70
2021/10/22 03:51:56;;;;;;;;;24.00;22.00;;;;;13.80;88.27;100982.50;4903534;29;10569;-69
2021/10/22 03:54:38;;;;;;;;;21.25;21.25;;;;;13.53;89.42;100981.16;4916440;29;11184;-69
2021/10/22 03:57:33;;;;;;;;;24.00;24.00;;;;;13.65;89.44;100983.16;4917048;29;10377;-70
2021/10/22 04:00:29;;;;;;;;;21.00;19.50;;;;;13.59;90.16;100979.78;4915864;29;11468;-70
2021/10/22 04:03:25;;;;;;;;;29.00;27.50;;;;;13.77;88.90;100976.78;4915676;29;10559;-70
2021/10/22 04:06:20;;;;;;;;;21.50;21.50;;;;;13.62;89.17;100967.16;4915344;29;10536;-69
2021/10/22 04:09:16;;;;;;;;;27.00;27.00;;;;;13.69;88.97;100975.75;4919155;29;10458;-69
2021/10/22 04:11:46;;;;;;;;;29.25;29.25;;;;;13.72;89.10;100974.22;4933395;29;10535;-69
2021/10/22 04:14:41;;;;;;;;;31.25;28.25;;;;;13.56;90.13;100977.66;4934161;29;11584;-70
2021/10/22 04:17:38;;;;;;;;;25.75;25.75;;;;;13.87;88.37;100973.53;4932683;29;10772;-70
2021/10/22 04:20:34;;;;;;;;;26.75;26.25;;;;;13.80;88.75;100967.75;4933784;29;10620;-69
2021/10/22 04:23:30;;;;;;;;;20.00;20.00;;;;;13.91;88.56;100978.09;4936289;29;10466;-70
2021/10/22 04:26:25;;;;;;;;;24.50;23.75;;;;;13.60;90.06;100978.63;4938568;29;10569;-68
2021/10/22 04:29:21;;;;;;;;;28.75;26.50;;;;;13.86;89.17;100975.53;4934008;29;10560;-69
2021/10/22 04:32:17;;;;;;;;;25.50;25.50;;;;;13.79;89.50;100978.06;4933277;29;10535;-69
2021/10/22 04:35:12;;;;;;;;;26.25;25.75;;;;;13.98;89.13;100982.25;4925845;29;10522;-69
2021/10/22 04:41:22;;;;;;;;;26.50;25.25;;;;;14.06;88.71;101007.19;4938599;29;10364;-69
2021/10/22 04:44:18;;;;;;;;;25.75;25.50;;;;;14.16;88.32;101012.28;4937985;29;10303;-69
2021/10/22 04:47:05;;;;;;;;;20.00;20.00;;;;;14.00;89.30;101024.44;4937542;29;10619;-69
2021/10/22 04:50:02;;;;;;;;;26.00;21.50;;;;;14.12;88.79;101018.91;4936234;29;10301;-69
2021/10/22 04:52:58;;;;;;;;;25.00;24.00;;;;;14.10;89.13;101026.75;4905961;29;10357;-69
2021/10/22 04:55:54;;;;;;;;;25.00;25.00;;;;;14.16;89.08;101034.53;4930145;29;10349;-70
2021/10/22 04:58:50;;;;;;;;;25.50;25.50;;;;;14.17;88.81;101036.13;4925009;29;10403;-69
2021/10/22 05:01:46;;;;;;;;;26.75;26.75;;;;;14.30;88.50;101039.75;4937964;29;10545;-69
2021/10/22 05:04:43;;;;;;;;;23.25;23.25;;;;;14.22;88.89;101049.03;4914991;29;10369;-70
2021/10/22 05:07:39;;;;;;;;;26.75;26.75;;;;;14.16;89.36;101051.22;4939916;29;10378;-70
2021/10/22 05:10:37;;;;;;;;;23.25;21.50;;;;;14.24;89.06;101060.59;4943359;29;10290;-70
2021/10/22 05:13:34;;;;;;;;;22.25;20.50;;;;;14.29;88.75;101063.16;4930946;29;10330;-69
2021/10/22 05:16:35;;;;;;;;;28.75;28.75;;;;;14.27;89.08;101064.69;4937784;29;10313;-69
2021/10/22 05:19:31;;;;;;;;;27.25;27.25;;;;;14.29;89.15;101070.72;4936935;29;10388;-69
2021/10/22 05:21:59;;;;;;;;;29.75;26.25;;;;;14.29;88.93;101056.78;4938620;29;10457;-69
2021/10/22 05:24:55;;;;;;;;;26.50;26.50;;;;;14.26;88.79;101054.69;4934845;29;10445;-69
2021/10/22 05:27:50;;;;;;;;;28.25;27.75;;;;;14.24;89.68;101062.56;4935531;29;10217;-70
2021/10/22 05:30:46;;;;;;;;;29.00;28.75;;;;;14.46;88.52;101062.16;4937933;29;10385;-69
2021/10/22 05:33:41;;;;;;;;;25.75;25.75;;;;;14.44;88.58;101058.88;4924378;29;10225;-69
2021/10/22 05:36:37;;;;;;;;;27.25;27.25;;;;;14.37;88.71;101072.56;4936123;29;10388;-70
2021/10/22 05:39:33;;;;;;;;;30.00;30.00;;;;;14.37;88.70;101073.38;4936976;29;10286;-70
2021/10/22 05:42:28;;;;;;;;;23.25;23.25;;;;;14.38;88.98;101071.41;4936360;29;10301;-70
2021/10/22 05:45:24;;;;;;;;;18.25;13.75;;;;;14.40;88.82;101052.38;4933499;29;10184;-69
2021/10/22 05:48:12;;;;;;;;;30.75;27.75;;;;;14.46;88.27;101060.19;4936844;29;10357;-70
2021/10/22 05:51:07;;;;;;;;;26.25;26.25;;;;;14.48;88.00;101056.25;4936971;29;10293;-70
2021/10/22 05:54:03;;;;;;;;;27.25;25.50;;;;;14.51;87.73;101061.94;4936309;29;10378;-70
2021/10/22 05:56:58;;;;;;;;;26.25;26.25;;;;;14.59;87.21;101051.84;4932685;29;10231;-70
2021/10/22 05:59:54;;;;;;;;;17.25;16.75;;;;;14.60;86.67;101065.41;4928223;29;10476;-71
2021/10/22 06:02:51;;;;;;;;;21.25;21.25;;;;;14.45;87.61;101063.28;4923675;29;10239;-71
